Terminal Aerodrome Forecast
Issued by NWS Rapid City, SD

Home | Current Version | Previous Version | Graphics & Text | Print | Product List | Glossary On
Versions: 1 2 3 4 5 6 7 8 9 10 11 12 13 14 15 16 17 18
000
FTUS43 KUNR 110520
TAFRAP
TAF
KRAP 110520Z 1106/1206 32022G32KT P6SM BKN200
     FM111000 33034G48KT P6SM BKN200
     FM112200 34020G30KT P6SM SCT250
     FM120200 31010KT P6SM SCT250=

USA.gov is the U.S. government's official web portal to all federal, state and local government web resources and services.